createdAt,value
2023-05-18T00:00:35.866Z,1010.81
2023-05-18T00:01:35.885Z,1010.86
2023-05-18T00:02:35.970Z,1010.83
2023-05-18T00:03:36.058Z,1010.85
2023-05-18T00:04:35.886Z,1010.86
2023-05-18T00:05:35.875Z,1010.86
2023-05-18T00:06:35.791Z,1010.87
2023-05-18T00:07:35.822Z,1010.86
2023-05-18T00:08:35.787Z,1010.86
2023-05-18T00:09:35.766Z,1010.85
2023-05-18T00:10:35.787Z,1010.84
2023-05-18T00:11:35.753Z,1010.85
2023-05-18T00:12:35.733Z,1010.79
2023-05-18T00:13:35.756Z,1010.79
2023-05-18T00:14:35.717Z,1010.78
2023-05-18T00:15:35.696Z,1010.78
2023-05-18T00:16:35.754Z,1010.76
2023-05-18T00:17:35.732Z,1010.79
2023-05-18T00:18:35.665Z,1010.78
2023-05-18T00:19:35.685Z,1010.78
2023-05-18T00:20:35.662Z,1010.75
2023-05-18T00:21:35.648Z,1010.75
2023-05-18T00:22:35.623Z,1010.76
2023-05-18T00:23:35.628Z,1010.73
2023-05-18T00:24:37.040Z,1010.74
2023-05-18T00:25:35.619Z,1010.73
2023-05-18T00:26:35.589Z,1010.79
2023-05-18T00:27:35.570Z,1010.77
2023-05-18T00:28:35.554Z,1010.76
2023-05-18T00:29:35.548Z,1010.79
2023-05-18T00:30:35.554Z,1010.74
2023-05-18T00:31:35.561Z,1010.75
2023-05-18T00:32:35.554Z,1010.79
2023-05-18T00:33:35.501Z,1010.75
2023-05-18T00:34:35.497Z,1010.77
2023-05-18T00:35:35.664Z,1010.80
2023-05-18T00:36:35.488Z,1010.77
2023-05-18T00:37:35.525Z,1010.78
2023-05-18T00:38:35.449Z,1010.78
2023-05-18T00:39:35.442Z,1010.80
2023-05-18T00:40:35.435Z,1010.77
2023-05-18T00:41:35.422Z,1010.79
2023-05-18T00:42:35.467Z,1010.83
2023-05-18T00:43:35.397Z,1010.76
2023-05-18T00:44:35.388Z,1010.80
2023-05-18T00:45:35.446Z,1010.73
2023-05-18T00:46:35.473Z,1010.78
2023-05-18T00:47:35.408Z,1010.80
2023-05-18T00:48:35.408Z,1010.78
2023-05-18T00:49:35.335Z,1010.77
2023-05-18T00:50:35.325Z,1010.78
2023-05-18T00:51:35.331Z,1010.76
2023-05-18T00:52:35.303Z,1010.80
2023-05-18T00:53:35.342Z,1010.81
2023-05-18T00:54:35.282Z,1010.76
2023-05-18T00:55:35.271Z,1010.81
2023-05-18T00:56:35.268Z,1010.76
2023-05-18T00:57:35.262Z,1010.80
2023-05-18T00:58:35.279Z,1010.80
2023-05-18T00:59:35.280Z,1010.76
2023-05-18T01:00:35.221Z,1010.71
2023-05-18T01:01:35.400Z,1010.73
2023-05-18T01:02:35.295Z,1010.76
2023-05-18T01:03:35.249Z,1010.71
2023-05-18T01:04:35.197Z,1010.72
2023-05-18T01:05:35.201Z,1010.69
2023-05-18T01:06:35.179Z,1010.71
2023-05-18T01:07:35.164Z,1010.73
2023-05-18T01:08:35.138Z,1010.70
2023-05-18T01:09:35.137Z,1010.72
2023-05-18T01:10:35.131Z,1010.71
2023-05-18T01:11:35.145Z,1010.70
2023-05-18T01:12:35.141Z,1010.69
2023-05-18T01:13:35.076Z,1010.66
2023-05-18T01:14:35.073Z,1010.66
2023-05-18T01:15:35.075Z,1010.61
2023-05-18T01:16:35.070Z,1010.67
2023-05-18T01:17:35.110Z,1010.67
2023-05-18T01:18:35.112Z,1010.67
2023-05-18T01:19:35.018Z,1010.69
2023-05-18T01:20:35.006Z,1010.67
2023-05-18T01:21:34.993Z,1010.67
2023-05-18T01:22:35.020Z,1010.68
2023-05-18T01:23:35.006Z,1010.68
2023-05-18T01:24:34.973Z,1010.66
2023-05-18T01:25:34.948Z,1010.66
2023-05-18T01:26:34.940Z,1010.68
2023-05-18T01:27:34.936Z,1010.67
2023-05-18T01:28:34.951Z,1010.64
2023-05-18T01:29:34.968Z,1010.64
2023-05-18T01:30:34.918Z,1010.64
2023-05-18T01:31:34.994Z,1010.68
2023-05-18T01:32:34.892Z,1010.69
2023-05-18T01:33:34.878Z,1010.69
2023-05-18T01:34:34.877Z,1010.71
2023-05-18T01:35:34.895Z,1010.69
2023-05-18T01:36:34.849Z,1010.69
2023-05-18T01:37:34.819Z,1010.68
2023-05-18T01:38:34.807Z,1010.67
2023-05-18T01:39:35.013Z,1010.68
2023-05-18T01:40:34.806Z,1010.67
2023-05-18T01:41:34.825Z,1010.69
2023-05-18T01:42:34.766Z,1010.67
2023-05-18T01:43:34.780Z,1010.74
2023-05-18T01:44:34.740Z,1010.72
2023-05-18T01:45:34.731Z,1010.73
2023-05-18T01:46:34.802Z,1010.71
2023-05-18T01:47:34.760Z,1010.73
2023-05-18T01:48:34.704Z,1010.74
2023-05-18T01:49:34.707Z,1010.70
2023-05-18T01:50:34.692Z,1010.71
2023-05-18T01:51:34.663Z,1010.71
2023-05-18T01:52:34.691Z,1010.75
2023-05-18T01:53:34.687Z,1010.73
2023-05-18T01:54:34.630Z,1010.72
2023-05-18T01:55:34.652Z,1010.73
2023-05-18T01:56:34.614Z,1010.75
2023-05-18T01:57:34.623Z,1010.74
2023-05-18T01:58:34.592Z,1010.72
2023-05-18T01:59:34.604Z,1010.69
2023-05-18T02:00:34.565Z,1010.74
2023-05-18T02:01:34.656Z,1010.68
2023-05-18T02:02:34.617Z,1010.74
2023-05-18T02:03:34.695Z,1010.75
2023-05-18T02:04:34.527Z,1010.68
2023-05-18T02:05:34.537Z,1010.68
2023-05-18T02:06:34.508Z,1010.68
2023-05-18T02:07:34.515Z,1010.69
2023-05-18T02:08:34.485Z,1010.74
2023-05-18T02:09:34.480Z,1010.71
2023-05-18T02:10:34.482Z,1010.69
2023-05-18T02:11:34.481Z,1010.72
2023-05-18T02:12:34.434Z,1010.73
2023-05-18T02:13:34.422Z,1010.73
2023-05-18T02:14:34.413Z,1010.76
2023-05-18T02:15:34.418Z,1010.75
2023-05-18T02:16:34.427Z,1010.73
2023-05-18T02:17:34.437Z,1010.76
2023-05-18T02:18:34.484Z,1010.73
2023-05-18T02:19:34.375Z,1010.74
2023-05-18T02:20:34.370Z,1010.78
2023-05-18T02:21:34.365Z,1010.71
2023-05-18T02:22:34.353Z,1010.73
2023-05-18T02:23:34.354Z,1010.75
2023-05-18T02:24:34.350Z,1010.74
2023-05-18T02:25:34.300Z,1010.77
2023-05-18T02:26:34.308Z,1010.71
2023-05-18T02:27:34.287Z,1010.72
2023-05-18T02:28:34.261Z,1010.75
2023-05-18T02:29:34.332Z,1010.74
2023-05-18T02:30:34.239Z,1010.74
2023-05-18T02:31:34.265Z,1010.75
2023-05-18T02:32:34.241Z,1010.77
2023-05-18T02:33:34.207Z,1010.76
2023-05-18T02:34:34.221Z,1010.74
2023-05-18T02:35:34.219Z,1010.76
2023-05-18T02:36:34.173Z,1010.78
2023-05-18T02:37:34.180Z,1010.74
2023-05-18T02:38:34.155Z,1010.75
2023-05-18T02:39:34.139Z,1010.78
2023-05-18T02:40:34.133Z,1010.77
2023-05-18T02:41:34.173Z,1010.73
2023-05-18T02:42:34.122Z,1010.77
2023-05-18T02:43:34.115Z,1010.80
2023-05-18T02:44:34.089Z,1010.80
2023-05-18T02:45:34.186Z,1010.76
2023-05-18T02:46:34.083Z,1010.75
2023-05-18T02:47:34.122Z,1010.77
2023-05-18T02:48:34.070Z,1010.78
2023-05-18T02:49:34.040Z,1010.79
2023-05-18T02:50:34.028Z,1010.78
2023-05-18T02:51:34.017Z,1010.77
2023-05-18T02:52:34.116Z,1010.77
2023-05-18T02:53:34.039Z,1010.79
2023-05-18T02:54:34.049Z,1010.78
2023-05-18T02:55:33.971Z,1010.79
2023-05-18T02:56:33.969Z,1010.76
2023-05-18T02:57:33.962Z,1010.78
2023-05-18T02:58:33.957Z,1010.73
2023-05-18T02:59:33.975Z,1010.79
2023-05-18T03:00:33.924Z,1010.81
2023-05-18T03:01:33.982Z,1010.81
2023-05-18T03:02:33.981Z,1010.78
2023-05-18T03:03:33.930Z,1010.83
2023-05-18T03:04:33.902Z,1010.84
2023-05-18T03:05:33.908Z,1010.82
2023-05-18T03:06:33.860Z,1010.83
2023-05-18T03:07:33.853Z,1010.79
2023-05-18T03:08:33.847Z,1010.81
2023-05-18T03:09:33.846Z,1010.84
2023-05-18T03:10:33.814Z,1010.83
2023-05-18T03:11:33.854Z,1010.82
2023-05-18T03:12:33.805Z,1010.84
2023-05-18T03:13:33.790Z,1010.83
2023-05-18T03:14:33.777Z,1010.81
2023-05-18T03:15:33.834Z,1010.84
2023-05-18T03:16:33.796Z,1010.83
2023-05-18T03:17:33.881Z,1010.83
2023-05-18T03:18:33.739Z,1010.86
2023-05-18T03:19:33.743Z,1010.85
2023-05-18T03:20:33.708Z,1010.87
2023-05-18T03:21:33.860Z,1010.88
2023-05-18T03:22:33.708Z,1010.82
2023-05-18T03:23:33.705Z,1010.82
2023-05-18T03:24:33.660Z,1010.89
2023-05-18T03:25:33.665Z,1010.89
2023-05-18T03:26:33.660Z,1010.86
2023-05-18T03:27:33.640Z,1010.94
2023-05-18T03:28:33.625Z,1010.87
2023-05-18T03:29:33.678Z,1010.95
2023-05-18T03:30:33.599Z,1010.90
2023-05-18T03:31:33.659Z,1010.89
2023-05-18T03:32:33.616Z,1010.87
2023-05-18T03:33:33.570Z,1010.88
2023-05-18T03:34:33.568Z,1010.86
2023-05-18T03:35:33.591Z,1010.89
2023-05-18T03:36:33.542Z,1010.88
2023-05-18T03:37:33.578Z,1010.84
2023-05-18T03:38:33.509Z,1010.87
2023-05-18T03:39:33.523Z,1010.84
2023-05-18T03:40:33.491Z,1010.90
2023-05-18T03:41:33.512Z,1010.86
2023-05-18T03:42:33.485Z,1010.90
2023-05-18T03:43:33.460Z,1010.92
2023-05-18T03:44:33.475Z,1010.88
2023-05-18T03:45:33.444Z,1010.89
2023-05-18T03:46:33.486Z,1010.90
2023-05-18T03:47:33.489Z,1010.91
2023-05-18T03:48:33.402Z,1010.86
2023-05-18T03:49:33.413Z,1010.88
2023-05-18T03:50:33.387Z,1010.96
2023-05-18T03:51:33.371Z,1010.97
2023-05-18T03:52:33.362Z,1010.96
2023-05-18T03:53:33.398Z,1010.94
2023-05-18T03:54:33.340Z,1010.94
2023-05-18T03:55:33.352Z,1010.94
2023-05-18T03:56:33.340Z,1011.00
2023-05-18T03:57:33.311Z,1010.96
2023-05-18T03:58:33.300Z,1010.99
2023-05-18T03:59:33.349Z,1010.96
2023-05-18T04:00:33.309Z,1010.95
2023-05-18T04:01:33.328Z,1010.94
2023-05-18T04:02:33.419Z,1010.96
2023-05-18T04:03:33.355Z,1010.91
2023-05-18T04:04:33.226Z,1010.92
2023-05-18T04:05:33.318Z,1010.94
2023-05-18T04:06:33.210Z,1010.94
2023-05-18T04:07:33.203Z,1010.91
2023-05-18T04:08:33.217Z,1010.92
2023-05-18T04:09:33.180Z,1010.95
2023-05-18T04:10:33.170Z,1010.97
2023-05-18T04:11:33.255Z,1010.97
2023-05-18T04:12:33.149Z,1010.97
2023-05-18T04:13:33.171Z,1010.98
2023-05-18T04:14:33.173Z,1010.98
2023-05-18T04:15:33.116Z,1010.96
2023-05-18T04:16:33.159Z,1011.01
2023-05-18T04:17:33.141Z,1010.97
2023-05-18T04:18:33.080Z,1010.99
2023-05-18T04:19:33.298Z,1010.98
2023-05-18T04:20:33.069Z,1010.99
2023-05-18T04:21:33.054Z,1010.98
2023-05-18T04:22:33.041Z,1010.97
2023-05-18T04:23:33.069Z,1010.98
2023-05-18T04:24:33.046Z,1011.00
2023-05-18T04:25:33.175Z,1011.03
2023-05-18T04:26:33.013Z,1010.97
2023-05-18T04:27:32.988Z,1010.99
2023-05-18T04:28:32.975Z,1011.03
2023-05-18T04:29:33.005Z,1010.98
2023-05-18T04:30:32.987Z,1011.03
2023-05-18T04:31:32.987Z,1011.03
2023-05-18T04:32:32.969Z,1010.98
2023-05-18T04:33:32.931Z,1011.01
2023-05-18T04:34:32.914Z,1011.07
2023-05-18T04:35:33.155Z,1010.98
2023-05-18T04:36:32.884Z,1010.94
2023-05-18T04:37:32.884Z,1010.99
2023-05-18T04:38:32.873Z,1010.96
2023-05-18T04:39:32.872Z,1011.01
2023-05-18T04:40:32.861Z,1010.96
2023-05-18T04:41:32.868Z,1011.02
2023-05-18T04:42:32.828Z,1010.99
2023-05-18T04:43:32.818Z,1010.99
2023-05-18T04:44:32.801Z,1011.02
2023-05-18T04:45:33.107Z,1011.01
2023-05-18T04:46:32.830Z,1011.00
2023-05-18T04:47:32.841Z,1010.99
2023-05-18T04:48:32.777Z,1011.01
2023-05-18T04:49:32.752Z,1010.95
2023-05-18T04:50:32.750Z,1011.00
2023-05-18T04:51:32.797Z,1010.99
2023-05-18T04:52:32.722Z,1011.01
2023-05-18T04:53:32.772Z,1011.04
2023-05-18T04:54:32.691Z,1011.02
2023-05-18T04:55:33.004Z,1011.00
2023-05-18T04:56:32.673Z,1011.04
2023-05-18T04:57:32.681Z,1011.05
2023-05-18T04:58:32.661Z,1011.08
2023-05-18T04:59:32.700Z,1011.07
2023-05-18T05:00:32.652Z,1011.05
2023-05-18T05:01:32.660Z,1011.08
2023-05-18T05:02:32.686Z,1011.08
2023-05-18T05:03:32.765Z,1011.10
2023-05-18T05:04:32.586Z,1011.10
2023-05-18T05:05:32.933Z,1011.10
2023-05-18T05:06:32.585Z,1011.13
2023-05-18T05:07:32.592Z,1011.14
2023-05-18T05:08:32.540Z,1011.14
2023-05-18T05:09:32.538Z,1011.12
2023-05-18T05:10:32.562Z,1011.12
2023-05-18T05:11:32.552Z,1011.14
2023-05-18T05:12:32.518Z,1011.14
2023-05-18T05:13:32.488Z,1011.07
2023-05-18T05:14:32.471Z,1011.10
2023-05-18T05:15:32.703Z,1011.13
2023-05-18T05:16:32.511Z,1011.15
2023-05-18T05:17:32.577Z,1011.19
2023-05-18T05:18:32.456Z,1011.14
2023-05-18T05:19:32.467Z,1011.14
2023-05-18T05:20:32.434Z,1011.15
2023-05-18T05:21:32.408Z,1011.20
2023-05-18T05:22:32.421Z,1011.22
2023-05-18T05:23:32.537Z,1011.24
2023-05-18T05:24:32.367Z,1011.18
2023-05-18T05:25:32.593Z,1011.14
2023-05-18T05:26:32.380Z,1011.19
2023-05-18T05:27:32.333Z,1011.13
2023-05-18T05:28:32.494Z,1011.17
2023-05-18T05:29:32.314Z,1011.19
2023-05-18T05:30:32.307Z,1011.18
2023-05-18T05:31:32.317Z,1011.22
2023-05-18T05:32:32.309Z,1011.26
2023-05-18T05:33:32.301Z,1011.30
2023-05-18T05:34:32.313Z,1011.27
2023-05-18T05:35:33.806Z,1011.28
2023-05-18T05:36:32.240Z,1011.28
2023-05-18T05:37:32.237Z,1011.26
2023-05-18T05:38:32.215Z,1011.26
2023-05-18T05:39:32.269Z,1011.27
2023-05-18T05:40:32.245Z,1011.31
2023-05-18T05:41:32.585Z,1011.28
2023-05-18T05:42:32.176Z,1011.32
2023-05-18T05:43:32.166Z,1011.21
2023-05-18T05:44:32.167Z,1011.21
2023-05-18T05:45:32.353Z,1011.24
2023-05-18T05:46:32.219Z,1011.25
2023-05-18T05:47:32.158Z,1011.28
2023-05-18T05:48:32.131Z,1011.23
2023-05-18T05:49:32.138Z,1011.29
2023-05-18T05:50:32.091Z,1011.24
2023-05-18T05:51:32.079Z,1011.26
2023-05-18T05:52:32.116Z,1011.28
2023-05-18T05:53:32.057Z,1011.23
2023-05-18T05:54:32.046Z,1011.28
2023-05-18T05:55:32.421Z,1011.24
2023-05-18T05:56:32.028Z,1011.19
2023-05-18T05:57:32.027Z,1011.21
2023-05-18T05:58:32.043Z,1011.25
2023-05-18T05:59:32.006Z,1011.26
2023-05-18T06:00:31.998Z,1011.23
2023-05-18T06:01:31.979Z,1011.26
2023-05-18T06:02:32.085Z,1011.26
2023-05-18T06:03:34.299Z,1011.30
2023-05-18T06:04:32.037Z,1011.36
2023-05-18T06:05:32.354Z,1011.37
2023-05-18T06:06:31.935Z,1011.36
2023-05-18T06:07:31.909Z,1011.34
2023-05-18T06:08:31.897Z,1011.34
2023-05-18T06:09:31.901Z,1011.40
2023-05-18T06:10:31.924Z,1011.36
2023-05-18T06:11:31.907Z,1011.36
2023-05-18T06:12:31.855Z,1011.39
2023-05-18T06:13:31.843Z,1011.37
2023-05-18T06:14:31.830Z,1011.41
2023-05-18T06:15:32.081Z,1011.39
2023-05-18T06:16:31.989Z,1011.41
2023-05-18T06:17:31.861Z,1011.43
2023-05-18T06:18:31.802Z,1011.44
2023-05-18T06:19:31.781Z,1011.44
2023-05-18T06:20:31.761Z,1011.38
2023-05-18T06:21:31.790Z,1011.46
2023-05-18T06:22:31.789Z,1011.44
2023-05-18T06:23:31.732Z,1011.41
2023-05-18T06:24:31.722Z,1011.44
2023-05-18T06:25:31.973Z,1011.46
2023-05-18T06:26:31.718Z,1011.51
2023-05-18T06:27:31.741Z,1011.47
2023-05-18T06:28:31.730Z,1011.50
2023-05-18T06:29:31.699Z,1011.53
2023-05-18T06:30:31.655Z,1011.54
2023-05-18T06:31:31.742Z,1011.53
2023-05-18T06:32:31.704Z,1011.56
2023-05-18T06:33:31.641Z,1011.61
2023-05-18T06:34:31.771Z,1011.57
2023-05-18T06:35:31.726Z,1011.55
2023-05-18T06:36:31.631Z,1011.56
2023-05-18T06:37:31.589Z,1011.55
2023-05-18T06:38:31.572Z,1011.55
2023-05-18T06:39:31.587Z,1011.52
2023-05-18T06:40:31.550Z,1011.61
2023-05-18T06:41:31.539Z,1011.60
2023-05-18T06:42:31.564Z,1011.58
2023-05-18T06:43:31.562Z,1011.54
2023-05-18T06:44:31.539Z,1011.55
2023-05-18T06:45:33.800Z,1011.51
2023-05-18T06:46:31.709Z,1011.52
2023-05-18T06:47:31.534Z,1011.52
2023-05-18T06:48:31.493Z,1011.44
2023-05-18T06:49:31.463Z,1011.47
2023-05-18T06:50:31.450Z,1011.46
2023-05-18T06:51:31.438Z,1011.53
2023-05-18T06:52:31.439Z,1011.52
2023-05-18T06:53:31.421Z,1011.54
2023-05-18T06:54:31.449Z,1011.53
2023-05-18T06:55:31.694Z,1011.53
2023-05-18T06:56:31.375Z,1011.54
2023-05-18T06:57:31.386Z,1011.54
2023-05-18T06:58:31.360Z,1011.52
2023-05-18T06:59:31.391Z,1011.53
2023-05-18T07:00:31.369Z,1011.48
2023-05-18T07:01:31.379Z,1011.50
2023-05-18T07:02:31.382Z,1011.51
2023-05-18T07:03:31.328Z,1011.53
2023-05-18T07:04:31.314Z,1011.49
2023-05-18T07:05:31.530Z,1011.47
2023-05-18T07:06:31.353Z,1011.52
2023-05-18T07:07:31.292Z,1011.52
2023-05-18T07:08:31.248Z,1011.51
2023-05-18T07:09:31.240Z,1011.48
2023-05-18T07:10:31.267Z,1011.48
2023-05-18T07:11:31.278Z,1011.47
2023-05-18T07:12:31.222Z,1011.43
2023-05-18T07:13:31.200Z,1011.45
2023-05-18T07:14:31.203Z,1011.47
2023-05-18T07:15:31.501Z,1011.49
2023-05-18T07:16:31.301Z,1011.51
2023-05-18T07:17:31.206Z,1011.48
2023-05-18T07:18:31.151Z,1011.43
2023-05-18T07:19:31.203Z,1011.49
2023-05-18T07:20:31.142Z,1011.48
2023-05-18T07:21:31.118Z,1011.44
2023-05-18T07:22:31.092Z,1011.45
2023-05-18T07:23:31.132Z,1011.55
2023-05-18T07:24:31.101Z,1011.52
2023-05-18T07:25:31.282Z,1011.50
2023-05-18T07:26:31.065Z,1011.50
2023-05-18T07:27:31.164Z,1011.49
2023-05-18T07:28:31.102Z,1011.52
2023-05-18T07:29:31.017Z,1011.49
2023-05-18T07:30:31.008Z,1011.49
2023-05-18T07:31:31.068Z,1011.55
2023-05-18T07:32:31.053Z,1011.45
2023-05-18T07:33:30.971Z,1011.48
2023-05-18T07:34:30.985Z,1011.48
2023-05-18T07:35:31.172Z,1011.47
2023-05-18T07:36:30.957Z,1011.45
2023-05-18T07:37:30.946Z,1011.44
2023-05-18T07:38:30.924Z,1011.43
2023-05-18T07:39:30.912Z,1011.49
2023-05-18T07:40:30.956Z,1011.44
2023-05-18T07:41:30.898Z,1011.45
2023-05-18T07:42:30.879Z,1011.42
2023-05-18T07:43:30.926Z,1011.41
2023-05-18T07:44:30.858Z,1011.42
2023-05-18T07:45:31.069Z,1011.38
2023-05-18T07:46:30.896Z,1011.34
2023-05-18T07:47:30.885Z,1011.38
2023-05-18T07:48:30.838Z,1011.38
2023-05-18T07:49:30.820Z,1011.34
2023-05-18T07:50:30.795Z,1011.37
2023-05-18T07:51:30.777Z,1011.37
2023-05-18T07:52:30.809Z,1011.37
2023-05-18T07:53:30.785Z,1011.35
2023-05-18T07:54:30.768Z,1011.39
2023-05-18T07:55:31.081Z,1011.42
2023-05-18T07:56:30.741Z,1011.39
2023-05-18T07:57:30.735Z,1011.37
2023-05-18T07:58:30.750Z,1011.37
2023-05-18T07:59:30.750Z,1011.38
2023-05-18T08:00:30.714Z,1011.33
2023-05-18T08:01:30.703Z,1011.33
2023-05-18T08:02:33.576Z,1011.33
2023-05-18T08:03:31.125Z,1011.29
2023-05-18T08:04:30.756Z,1011.29
2023-05-18T08:05:30.779Z,1011.29
2023-05-18T08:06:30.631Z,1011.27
2023-05-18T08:07:30.638Z,1011.26
2023-05-18T08:08:30.603Z,1011.21
2023-05-18T08:09:30.584Z,1011.20
2023-05-18T08:10:30.611Z,1011.19
2023-05-18T08:11:30.558Z,1011.17
2023-05-18T08:12:30.575Z,1011.21
2023-05-18T08:13:32.620Z,1011.18
2023-05-18T08:14:30.538Z,1011.20
2023-05-18T08:15:30.695Z,1011.23
2023-05-18T08:16:30.555Z,1011.24
2023-05-18T08:17:30.539Z,1011.25
2023-05-18T08:18:30.486Z,1011.21
2023-05-18T08:19:30.547Z,1011.17
2023-05-18T08:20:30.490Z,1011.20
2023-05-18T08:21:30.456Z,1011.20
2023-05-18T08:22:30.971Z,1011.17
2023-05-18T08:23:30.442Z,1011.14
2023-05-18T08:24:30.431Z,1011.13
2023-05-18T08:25:30.659Z,1011.16
2023-05-18T08:26:30.420Z,1011.17
2023-05-18T08:27:30.392Z,1011.13
2023-05-18T08:28:30.474Z,1011.10
2023-05-18T08:29:30.366Z,1011.14
2023-05-18T08:30:30.357Z,1011.12
2023-05-18T08:31:30.451Z,1011.10
2023-05-18T08:32:30.423Z,1011.15
2023-05-18T08:33:30.326Z,1011.10
2023-05-18T08:34:30.354Z,1011.08
2023-05-18T08:35:30.696Z,1011.09
2023-05-18T08:36:30.295Z,1011.10
2023-05-18T08:37:30.298Z,1011.06
2023-05-18T08:38:30.280Z,1011.11
2023-05-18T08:39:30.274Z,1011.07
2023-05-18T08:40:30.293Z,1011.09
2023-05-18T08:41:30.229Z,1011.12
2023-05-18T08:42:38.003Z,1011.09
2023-05-18T08:43:31.212Z,1011.09
2023-05-18T08:44:30.219Z,1011.10
2023-05-18T08:45:30.586Z,1011.06
2023-05-18T08:46:30.214Z,1011.00
2023-05-18T08:47:30.195Z,1011.00
2023-05-18T08:48:30.220Z,1010.99
2023-05-18T08:49:30.165Z,1011.04
2023-05-18T08:50:30.381Z,1011.00
2023-05-18T08:51:30.167Z,1011.02
2023-05-18T08:52:30.153Z,1011.04
2023-05-18T08:53:30.108Z,1011.01
2023-05-18T08:54:30.105Z,1011.09
2023-05-18T08:55:30.532Z,1011.05
2023-05-18T08:56:30.102Z,1010.97
2023-05-18T08:57:30.062Z,1011.03
2023-05-18T08:58:30.105Z,1011.05
2023-05-18T08:59:30.035Z,1011.01
2023-05-18T09:00:30.314Z,1011.05
2023-05-18T09:01:30.120Z,1011.04
2023-05-18T09:02:30.033Z,1011.06
2023-05-18T09:03:29.999Z,1011.05
2023-05-18T09:04:30.074Z,1011.06
2023-05-18T09:05:30.279Z,1011.05
2023-05-18T09:06:29.980Z,1011.05
2023-05-18T09:07:29.967Z,1011.04
2023-05-18T09:08:29.961Z,1010.99
2023-05-18T09:09:29.937Z,1010.97
2023-05-18T09:10:29.946Z,1011.03
2023-05-18T09:11:29.911Z,1011.06
2023-05-18T09:12:29.896Z,1011.00
2023-05-18T09:13:29.902Z,1011.01
2023-05-18T09:14:29.886Z,1011.02
2023-05-18T09:15:30.088Z,1010.97
2023-05-18T09:16:29.990Z,1010.98
2023-05-18T09:17:29.866Z,1011.01
2023-05-18T09:18:29.873Z,1010.97
2023-05-18T09:19:29.839Z,1010.96
2023-05-18T09:20:29.829Z,1010.96
2023-05-18T09:21:29.793Z,1010.96
2023-05-18T09:22:29.835Z,1010.93
2023-05-18T09:23:29.788Z,1010.94
2023-05-18T09:24:29.788Z,1010.92
2023-05-18T09:25:29.992Z,1010.90
2023-05-18T09:26:29.771Z,1010.88
2023-05-18T09:27:29.740Z,1010.89
2023-05-18T09:28:29.778Z,1010.84
2023-05-18T09:29:31.154Z,1010.86
2023-05-18T09:30:29.732Z,1010.86
2023-05-18T09:31:29.698Z,1010.93
2023-05-18T09:32:29.728Z,1010.95
2023-05-18T09:33:29.787Z,1010.86
2023-05-18T09:34:29.695Z,1010.92
2023-05-18T09:35:29.889Z,1010.93
2023-05-18T09:36:29.637Z,1010.93
2023-05-18T09:37:29.626Z,1010.89
2023-05-18T09:38:29.649Z,1010.84
2023-05-18T09:39:29.758Z,1010.88
2023-05-18T09:40:29.625Z,1010.82
2023-05-18T09:41:29.607Z,1010.83
2023-05-18T09:42:29.574Z,1010.88
2023-05-18T09:43:29.563Z,1010.83
2023-05-18T09:44:29.567Z,1010.83
2023-05-18T09:45:29.667Z,1010.82
2023-05-18T09:46:29.599Z,1010.86
2023-05-18T09:47:29.571Z,1010.83
2023-05-18T09:48:29.537Z,1010.83
2023-05-18T09:49:29.515Z,1010.78
2023-05-18T09:50:29.489Z,1010.85
2023-05-18T09:51:29.538Z,1010.77
2023-05-18T09:52:29.467Z,1010.86
2023-05-18T09:53:29.485Z,1010.83
2023-05-18T09:54:29.490Z,1010.89
2023-05-18T09:55:29.738Z,1010.85
2023-05-18T09:56:29.426Z,1010.86
2023-05-18T09:57:29.425Z,1010.82
2023-05-18T09:58:29.423Z,1010.86
2023-05-18T09:59:29.425Z,1010.79
2023-05-18T10:00:29.406Z,1010.74
2023-05-18T10:01:29.454Z,1010.71
2023-05-18T10:02:29.429Z,1010.69
2023-05-18T10:03:29.348Z,1010.68
2023-05-18T10:04:29.383Z,1010.71
2023-05-18T10:05:29.493Z,1010.71
2023-05-18T10:06:29.348Z,1010.70
2023-05-18T10:07:29.327Z,1010.70
2023-05-18T10:08:29.404Z,1010.64
2023-05-18T10:09:29.291Z,1010.67
2023-05-18T10:10:29.504Z,1010.66
2023-05-18T10:11:29.333Z,1010.67
2023-05-18T10:12:29.259Z,1010.65
2023-05-18T10:13:29.260Z,1010.59
2023-05-18T10:14:31.388Z,1010.61
2023-05-18T10:15:29.416Z,1010.59
2023-05-18T10:16:29.261Z,1010.58
2023-05-18T10:17:29.270Z,1010.56
2023-05-18T10:18:29.260Z,1010.60
2023-05-18T10:19:29.238Z,1010.55
2023-05-18T10:20:29.369Z,1010.57
2023-05-18T10:21:29.179Z,1010.56
2023-05-18T10:22:29.148Z,1010.54
2023-05-18T10:23:29.139Z,1010.57
2023-05-18T10:24:29.136Z,1010.50
2023-05-18T10:25:29.150Z,1010.48
2023-05-18T10:26:29.111Z,1010.44
2023-05-18T10:27:29.118Z,1010.42
2023-05-18T10:28:29.103Z,1010.44
2023-05-18T10:29:29.089Z,1010.48
2023-05-18T10:30:29.358Z,1010.57
2023-05-18T10:31:29.121Z,1010.49
2023-05-18T10:32:29.094Z,1010.52
2023-05-18T10:33:30.110Z,1010.49
2023-05-18T10:34:29.051Z,1010.45
2023-05-18T10:35:29.007Z,1010.49
2023-05-18T10:36:29.018Z,1010.49
2023-05-18T10:37:28.989Z,1010.54
2023-05-18T10:38:28.996Z,1010.41
2023-05-18T10:39:29.007Z,1010.38
2023-05-18T10:40:29.230Z,1010.31
2023-05-18T10:41:28.955Z,1010.36
2023-05-18T10:42:28.955Z,1010.32
2023-05-18T10:43:28.964Z,1010.32
2023-05-18T10:44:28.915Z,1010.35
2023-05-18T10:45:28.931Z,1010.39
2023-05-18T10:46:28.947Z,1010.32
2023-05-18T10:47:29.042Z,1010.31
2023-05-18T10:48:28.932Z,1010.32
2023-05-18T10:49:28.861Z,1010.33
2023-05-18T10:50:29.028Z,1010.27
2023-05-18T10:51:28.862Z,1010.30
2023-05-18T10:52:28.868Z,1010.28
2023-05-18T10:53:28.817Z,1010.28
2023-05-18T10:54:28.805Z,1010.30
2023-05-18T10:55:28.796Z,1010.25
2023-05-18T10:56:28.790Z,1010.28
2023-05-18T10:57:28.798Z,1010.30
2023-05-18T10:58:28.783Z,1010.26
2023-05-18T10:59:28.890Z,1010.27
2023-05-18T11:00:28.861Z,1010.28
2023-05-18T11:01:28.753Z,1010.18
2023-05-18T11:02:28.745Z,1010.21
2023-05-18T11:03:28.835Z,1010.17
2023-05-18T11:04:28.721Z,1010.16
2023-05-18T11:05:28.717Z,1010.19
2023-05-18T11:06:28.688Z,1010.23
2023-05-18T11:07:28.664Z,1010.23
2023-05-18T11:08:28.659Z,1010.22
2023-05-18T11:09:28.680Z,1010.18
2023-05-18T11:10:28.727Z,1010.18
2023-05-18T11:11:28.622Z,1010.14
2023-05-18T11:12:28.626Z,1010.19
2023-05-18T11:13:28.637Z,1010.18
2023-05-18T11:14:28.598Z,1010.22
2023-05-18T11:15:28.599Z,1010.17
2023-05-18T11:16:30.508Z,1010.19
2023-05-18T11:17:28.574Z,1010.14
2023-05-18T11:18:28.547Z,1010.17
2023-05-18T11:19:28.534Z,1010.15
2023-05-18T11:20:28.599Z,1010.15
2023-05-18T11:21:28.564Z,1010.15
2023-05-18T11:22:29.891Z,1010.16
2023-05-18T11:23:28.492Z,1010.17
2023-05-18T11:24:28.493Z,1010.13
2023-05-18T11:25:28.795Z,1010.08
2023-05-18T11:26:28.466Z,1010.11
2023-05-18T11:27:29.343Z,1010.15
2023-05-18T11:28:28.444Z,1010.14
2023-05-18T11:29:28.442Z,1010.14
2023-05-18T11:30:28.417Z,1010.09
2023-05-18T11:31:28.445Z,1010.07
2023-05-18T11:32:30.580Z,1010.04
2023-05-18T11:33:28.487Z,1010.06
2023-05-18T11:34:28.375Z,1010.07
2023-05-18T11:35:28.364Z,1009.98
2023-05-18T11:36:28.368Z,1009.96
2023-05-18T11:37:28.399Z,1009.99
2023-05-18T11:38:28.354Z,1009.96
2023-05-18T11:39:28.321Z,1010.03
2023-05-18T11:40:28.358Z,1009.96
2023-05-18T11:41:28.331Z,1009.97
2023-05-18T11:42:28.281Z,1009.98
2023-05-18T11:43:28.299Z,1009.95
2023-05-18T11:44:28.335Z,1009.92
2023-05-18T11:45:28.254Z,1009.94
2023-05-18T11:46:28.262Z,1009.95
2023-05-18T11:47:28.364Z,1009.92
2023-05-18T11:48:28.245Z,1009.89
2023-05-18T11:49:28.238Z,1009.86
2023-05-18T11:50:28.229Z,1009.85
2023-05-18T11:51:28.191Z,1009.85
2023-05-18T11:52:28.180Z,1009.83
2023-05-18T11:53:28.178Z,1009.89
2023-05-18T11:54:28.174Z,1009.91
2023-05-18T11:55:28.147Z,1009.83
2023-05-18T11:56:28.168Z,1009.83
2023-05-18T11:57:28.122Z,1009.84
2023-05-18T11:58:28.124Z,1009.82
2023-05-18T11:59:28.101Z,1009.82
2023-05-18T12:00:28.087Z,1009.79
2023-05-18T12:01:28.081Z,1009.80
2023-05-18T12:02:28.172Z,1009.76
2023-05-18T12:03:28.236Z,1009.75
2023-05-18T12:04:28.111Z,1009.70
2023-05-18T12:05:28.044Z,1009.65